createdAt,value
2018-03-28T00:02:26.403Z,19.08
2018-03-28T00:04:54.375Z,18.75
2018-03-28T00:07:22.367Z,20.67
2018-03-28T00:09:50.385Z,20.55
2018-03-28T00:12:18.407Z,18.67
2018-03-28T00:14:46.423Z,19.15
2018-03-28T00:17:14.421Z,18.27
2018-03-28T00:19:42.404Z,20.37
2018-03-28T00:22:10.400Z,18.23
2018-03-28T00:24:38.440Z,19.75
2018-03-28T00:27:06.436Z,19.20
2018-03-28T00:29:34.428Z,18.75
2018-03-28T00:32:02.376Z,17.35
2018-03-28T00:34:30.359Z,18.83
2018-03-28T00:36:58.368Z,16.73
2018-03-28T00:39:26.360Z,16.60
2018-03-28T00:41:54.338Z,18.55
2018-03-28T00:44:22.340Z,16.90
2018-03-28T00:46:51.352Z,17.95
2018-03-28T00:49:19.356Z,17.77
2018-03-28T00:51:47.352Z,16.48
2018-03-28T00:54:15.323Z,17.42
2018-03-28T00:56:43.300Z,16.20
2018-03-28T00:59:11.307Z,17.45
2018-03-28T01:01:39.296Z,17.17
2018-03-28T01:04:07.271Z,17.90
2018-03-28T01:06:35.280Z,17.52
2018-03-28T01:09:03.243Z,18.55
2018-03-28T01:11:31.252Z,15.38
2018-03-28T01:13:59.208Z,15.90
2018-03-28T01:16:27.184Z,16.40
2018-03-28T01:18:55.168Z,15.95
2018-03-28T01:21:24.268Z,16.10
2018-03-28T01:23:52.259Z,15.73
2018-03-28T01:26:20.256Z,17.75
2018-03-28T01:28:48.248Z,18.30
2018-03-28T01:31:16.234Z,19.35
2018-03-28T01:33:44.231Z,18.48
2018-03-28T01:36:12.196Z,17.35
2018-03-28T01:38:40.227Z,17.15
2018-03-28T01:41:08.237Z,16.58
2018-03-28T01:43:36.230Z,16.52
2018-03-28T01:46:04.224Z,16.90
2018-03-28T01:48:32.251Z,15.60
2018-03-28T01:51:00.246Z,15.50
2018-03-28T01:53:28.211Z,16.02
2018-03-28T01:55:56.215Z,14.68
2018-03-28T01:58:25.244Z,16.00
2018-03-28T02:00:53.210Z,16.10
2018-03-28T02:03:21.196Z,17.70
2018-03-28T02:05:49.161Z,15.00
2018-03-28T02:08:17.160Z,15.85
2018-03-28T02:10:45.156Z,16.10
2018-03-28T02:13:13.153Z,15.85
2018-03-28T02:15:41.142Z,16.35
2018-03-28T02:18:09.112Z,15.82
2018-03-28T02:20:37.088Z,16.75
2018-03-28T02:23:05.064Z,17.27
2018-03-28T02:25:33.078Z,14.75
2018-03-28T02:28:01.068Z,14.82
2018-03-28T02:30:29.059Z,14.95
2018-03-28T02:32:57.067Z,16.33
2018-03-28T02:35:25.050Z,14.98
2018-03-28T02:37:53.004Z,15.80
2018-03-28T02:40:21.008Z,16.58
2018-03-28T02:42:49.011Z,16.50
2018-03-28T02:45:17.020Z,15.38
2018-03-28T02:47:45.001Z,15.80
2018-03-28T02:50:12.984Z,16.67
2018-03-28T02:52:41.002Z,15.75
2018-03-28T02:55:09.012Z,15.43
2018-03-28T02:57:37.001Z,16.48
2018-03-28T03:00:05.057Z,16.35
2018-03-28T03:02:34.067Z,18.02
2018-03-28T03:05:02.048Z,14.90
2018-03-28T03:07:30.031Z,17.08
2018-03-28T03:09:58.060Z,17.12
2018-03-28T03:12:26.042Z,18.02
2018-03-28T03:14:54.032Z,18.50
2018-03-28T03:17:22.049Z,16.00
2018-03-28T03:19:49.998Z,16.58
2018-03-28T03:22:17.974Z,15.60
2018-03-28T03:24:45.998Z,15.93
2018-03-28T03:27:13.991Z,17.85
2018-03-28T03:29:41.964Z,15.93
2018-03-28T03:32:09.961Z,15.23
2018-03-28T03:34:37.924Z,16.70
2018-03-28T03:37:05.957Z,17.02
2018-03-28T03:39:33.944Z,16.37
2018-03-28T03:42:01.973Z,17.58
2018-03-28T03:44:29.938Z,17.30
2018-03-28T03:46:57.951Z,17.27
2018-03-28T03:49:25.917Z,15.93
2018-03-28T03:51:53.895Z,16.67
2018-03-28T03:54:21.908Z,16.45
2018-03-28T03:56:49.893Z,16.73
2018-03-28T03:59:17.863Z,16.62
2018-03-28T04:01:45.855Z,17.87
2018-03-28T04:04:13.818Z,15.98
2018-03-28T04:06:41.796Z,16.87
2018-03-28T04:09:09.787Z,15.05
2018-03-28T04:11:37.733Z,17.40
2018-03-28T04:14:05.752Z,17.05
2018-03-28T04:16:33.699Z,16.08
2018-03-28T04:19:01.681Z,17.08
2018-03-28T04:21:29.692Z,17.62
2018-03-28T04:23:58.674Z,18.30
2018-03-28T04:26:27.680Z,16.90
2018-03-28T04:28:55.627Z,16.20
2018-03-28T04:31:23.604Z,19.08
2018-03-28T04:33:51.583Z,17.25
2018-03-28T04:36:19.582Z,17.25
2018-03-28T04:38:47.592Z,18.12
2018-03-28T04:41:15.564Z,18.67
2018-03-28T04:43:43.563Z,17.65
2018-03-28T04:46:11.587Z,17.35
2018-03-28T04:48:39.612Z,17.48
2018-03-28T04:51:07.605Z,18.77
2018-03-28T04:53:35.624Z,17.70
2018-03-28T04:56:03.604Z,16.25
2018-03-28T04:58:31.606Z,18.27
2018-03-28T05:00:59.634Z,19.65
2018-03-28T05:03:27.616Z,17.77
2018-03-28T05:05:55.613Z,18.00
2018-03-28T05:08:23.629Z,19.02
2018-03-28T05:10:51.619Z,17.50
2018-03-28T05:13:19.632Z,18.27
2018-03-28T05:15:47.746Z,18.37
2018-03-28T05:18:15.651Z,19.60
2018-03-28T05:20:44.616Z,16.65
2018-03-28T05:23:12.617Z,19.58
2018-03-28T05:25:40.560Z,17.60
2018-03-28T05:28:08.574Z,18.10
2018-03-28T05:30:36.592Z,15.82
2018-03-28T05:33:04.548Z,15.13
2018-03-28T05:35:32.554Z,16.02
2018-03-28T05:38:00.555Z,15.30
2018-03-28T05:40:28.508Z,14.00
2018-03-28T05:42:56.531Z,15.60
2018-03-28T05:45:24.550Z,15.30
2018-03-28T05:47:52.555Z,13.88
2018-03-28T05:50:20.567Z,14.20
2018-03-28T05:52:48.571Z,15.07
2018-03-28T05:55:16.568Z,12.98
2018-03-28T05:57:44.579Z,12.82
2018-03-28T06:00:12.604Z,13.70
2018-03-28T06:02:40.549Z,14.30
2018-03-28T06:05:08.545Z,12.65
2018-03-28T06:07:36.565Z,14.48
2018-03-28T06:10:04.536Z,12.15
2018-03-28T06:12:32.495Z,13.43
2018-03-28T06:15:00.502Z,12.70
2018-03-28T06:17:28.484Z,11.93
2018-03-28T06:19:56.484Z,12.23
2018-03-28T06:22:24.476Z,13.23
2018-03-28T06:24:52.511Z,12.02
2018-03-28T06:27:20.507Z,12.13
2018-03-28T06:29:48.499Z,11.80
2018-03-28T06:32:16.484Z,12.43
2018-03-28T06:34:44.461Z,11.00
2018-03-28T06:37:12.462Z,10.75
2018-03-28T06:39:40.464Z,10.23
2018-03-28T06:42:09.417Z,9.30
2018-03-28T06:44:37.404Z,8.32
2018-03-28T06:47:05.385Z,9.48
2018-03-28T06:49:33.364Z,8.25
2018-03-28T06:52:01.384Z,8.95
2018-03-28T06:54:29.344Z,7.10
2018-03-28T06:56:57.399Z,7.20
2018-03-28T06:59:25.395Z,7.80
2018-03-28T07:01:53.376Z,7.95
2018-03-28T07:04:21.344Z,7.90
2018-03-28T07:06:49.313Z,7.68
2018-03-28T07:09:17.299Z,8.18
2018-03-28T07:11:45.284Z,7.15
2018-03-28T07:14:13.253Z,7.53
2018-03-28T07:16:41.228Z,8.10
2018-03-28T07:19:09.235Z,7.55
2018-03-28T07:21:37.244Z,6.53
2018-03-28T07:24:05.204Z,6.78
2018-03-28T07:26:33.201Z,6.97
2018-03-28T07:29:01.252Z,7.10
2018-03-28T07:31:29.238Z,6.95
2018-03-28T07:33:57.248Z,5.93
2018-03-28T07:36:25.243Z,6.47
2018-03-28T07:38:53.272Z,6.95
2018-03-28T07:41:21.262Z,6.97
2018-03-28T07:43:49.838Z,6.65
2018-03-28T07:46:17.788Z,6.40
2018-03-28T07:48:45.788Z,6.90
2018-03-28T07:51:13.846Z,5.93
2018-03-28T07:53:42.852Z,6.00
2018-03-28T07:56:11.096Z,6.37
2018-03-28T07:58:39.184Z,5.07
2018-03-28T08:01:07.226Z,5.68
2018-03-28T08:03:35.220Z,6.70
2018-03-28T08:06:03.216Z,6.50
2018-03-28T08:08:32.519Z,5.70
2018-03-28T08:11:00.548Z,5.55
2018-03-28T08:13:28.552Z,5.30
2018-03-28T08:15:56.524Z,5.97
2018-03-28T08:18:24.512Z,5.75
2018-03-28T08:20:52.488Z,5.85
2018-03-28T08:23:20.482Z,5.40
2018-03-28T08:25:48.461Z,6.18
2018-03-28T08:28:16.448Z,5.30
2018-03-28T08:30:44.572Z,5.25
2018-03-28T08:33:12.821Z,6.22
2018-03-28T08:35:40.848Z,5.97
2018-03-28T08:38:08.803Z,6.62
2018-03-28T08:40:36.809Z,5.72
2018-03-28T08:43:04.820Z,6.18
2018-03-28T08:45:32.820Z,5.80
2018-03-28T08:48:00.798Z,7.10
2018-03-28T08:50:28.820Z,6.95
2018-03-28T08:52:57.800Z,6.22
2018-03-28T08:55:25.780Z,6.37
2018-03-28T08:57:53.752Z,5.82
2018-03-28T09:00:21.763Z,6.50
2018-03-28T09:02:49.770Z,6.77
2018-03-28T09:05:17.770Z,7.57
2018-03-28T09:07:45.749Z,6.03
2018-03-28T09:10:13.768Z,6.65
2018-03-28T09:12:41.756Z,6.37
2018-03-28T09:15:09.767Z,6.10
2018-03-28T09:17:37.769Z,5.68
2018-03-28T09:20:05.763Z,6.25
2018-03-28T09:22:33.731Z,6.22
2018-03-28T09:25:01.755Z,7.12
2018-03-28T09:27:29.777Z,5.32
2018-03-28T09:29:57.758Z,6.82
2018-03-28T09:32:25.777Z,6.95
2018-03-28T09:34:53.748Z,7.07
2018-03-28T09:37:21.730Z,7.65
2018-03-28T09:39:49.765Z,7.03
2018-03-28T09:42:18.527Z,6.80
2018-03-28T09:44:46.501Z,8.38
2018-03-28T09:47:14.528Z,7.20
2018-03-28T09:49:42.533Z,6.20
2018-03-28T09:52:10.500Z,6.72
2018-03-28T09:54:38.725Z,6.43
2018-03-28T09:57:06.723Z,7.40
2018-03-28T09:59:35.277Z,7.68
2018-03-28T10:02:10.072Z,6.82
2018-03-28T10:04:45.110Z,7.53
2018-03-28T10:07:13.624Z,7.30
2018-03-28T10:09:41.667Z,6.22
2018-03-28T10:12:09.648Z,6.50
2018-03-28T10:14:37.636Z,7.03
2018-03-28T10:17:05.628Z,7.40
2018-03-28T10:19:34.389Z,7.53
2018-03-28T10:22:02.377Z,6.73
2018-03-28T10:24:30.371Z,6.87
2018-03-28T10:26:58.326Z,6.97
2018-03-28T10:29:26.300Z,7.03
2018-03-28T10:31:54.299Z,6.20
2018-03-28T10:34:22.284Z,7.03
2018-03-28T10:36:50.288Z,7.83
2018-03-28T10:39:18.456Z,5.80
2018-03-28T10:41:46.532Z,6.17
2018-03-28T10:44:14.484Z,6.37
2018-03-28T10:46:42.499Z,5.73
2018-03-28T10:49:10.509Z,6.60
2018-03-28T10:51:38.512Z,6.43
2018-03-28T10:54:06.508Z,6.30
2018-03-28T10:56:34.502Z,6.10
2018-03-28T10:59:02.490Z,6.50
2018-03-28T11:01:30.488Z,6.00
2018-03-28T11:03:58.460Z,5.57
2018-03-28T11:06:26.484Z,6.90
2018-03-28T11:08:54.501Z,6.70
2018-03-28T11:11:22.465Z,6.77
2018-03-28T11:13:50.497Z,6.07
2018-03-28T11:16:18.486Z,6.20
2018-03-28T11:18:46.492Z,5.80
2018-03-28T11:21:14.495Z,5.50
2018-03-28T11:23:42.513Z,5.60
2018-03-28T11:26:10.474Z,5.57
2018-03-28T11:28:38.485Z,4.53
2018-03-28T11:31:06.469Z,5.00
2018-03-28T11:33:34.426Z,4.87
2018-03-28T11:36:02.714Z,4.97
2018-03-28T11:38:30.716Z,4.53
2018-03-28T11:40:59.811Z,5.20
2018-03-28T11:43:27.862Z,4.73
2018-03-28T11:45:55.881Z,4.63
2018-03-28T11:48:24.986Z,4.43
2018-03-28T11:50:52.995Z,4.27
2018-03-28T11:53:21.053Z,4.50
2018-03-28T11:55:49.044Z,4.90
2018-03-28T11:58:20.690Z,4.50
2018-03-28T12:00:48.708Z,4.80
2018-03-28T12:03:16.734Z,5.73
2018-03-28T12:05:44.737Z,6.70
2018-03-28T12:08:12.731Z,6.63
2018-03-28T12:10:40.688Z,6.30
2018-03-28T12:13:08.690Z,7.00
2018-03-28T12:15:36.642Z,6.60
2018-03-28T12:18:04.625Z,7.70
2018-03-28T12:20:32.640Z,6.83
2018-03-28T12:23:00.643Z,6.90
2018-03-28T12:25:28.654Z,6.77
2018-03-28T12:27:56.660Z,8.90
2018-03-28T12:30:25.718Z,5.80
2018-03-28T12:32:53.684Z,6.70
2018-03-28T12:35:22.701Z,6.50
2018-03-28T12:37:50.696Z,6.07
2018-03-28T12:40:18.680Z,5.70
2018-03-28T12:42:46.639Z,5.90
2018-03-28T12:45:14.616Z,7.10
2018-03-28T12:47:42.557Z,4.97
2018-03-28T12:50:10.579Z,5.03
2018-03-28T12:52:38.572Z,4.30
2018-03-28T12:55:06.559Z,8.17
2018-03-28T12:57:34.527Z,4.07
2018-03-28T13:00:02.529Z,4.40
2018-03-28T13:02:30.607Z,5.20
2018-03-28T13:04:58.554Z,5.20
2018-03-28T13:07:26.616Z,5.30
2018-03-28T13:09:54.602Z,5.40
2018-03-28T13:12:22.617Z,5.57
2018-03-28T13:14:50.606Z,5.70
2018-03-28T13:17:18.575Z,5.10
2018-03-28T13:19:46.532Z,5.23
2018-03-28T13:22:14.532Z,5.37
2018-03-28T13:24:43.660Z,5.43
2018-03-28T13:27:11.640Z,6.60
2018-03-28T13:29:39.668Z,5.60
2018-03-28T13:32:07.647Z,6.60
2018-03-28T13:34:35.677Z,6.67
2018-03-28T13:37:03.671Z,5.87
2018-03-28T13:39:31.701Z,5.80
2018-03-28T13:41:59.703Z,6.40
2018-03-28T13:44:27.705Z,5.93
2018-03-28T13:46:55.680Z,6.80
2018-03-28T13:49:23.667Z,5.60
2018-03-28T13:51:51.643Z,5.90
2018-03-28T13:54:19.988Z,6.95
2018-03-28T13:56:49.000Z,7.60
2018-03-28T13:59:16.978Z,7.30
2018-03-28T14:01:44.983Z,6.77
2018-03-28T14:04:13.067Z,6.60
2018-03-28T14:06:41.042Z,5.50
2018-03-28T14:09:08.997Z,5.20
2018-03-28T14:11:37.011Z,6.40
2018-03-28T14:14:05.004Z,5.90
2018-03-28T14:16:32.996Z,5.55
2018-03-28T14:19:01.003Z,6.27
2018-03-28T14:21:29.010Z,6.33
2018-03-28T14:23:56.975Z,6.60
2018-03-28T14:26:25.008Z,7.07
2018-03-28T14:28:53.173Z,6.70
2018-03-28T14:31:21.151Z,6.47
2018-03-28T14:33:49.172Z,6.30
2018-03-28T14:36:17.194Z,5.00
2018-03-28T14:38:45.166Z,6.27
2018-03-28T14:41:13.173Z,6.10
2018-03-28T14:43:41.194Z,5.90
2018-03-28T14:46:09.157Z,6.05
2018-03-28T14:48:37.149Z,5.37
2018-03-28T14:51:05.152Z,6.45
2018-03-28T14:53:33.424Z,5.25
2018-03-28T14:56:01.440Z,5.90
2018-03-28T14:58:29.480Z,5.60
2018-03-28T15:00:57.479Z,6.25
2018-03-28T15:03:25.441Z,5.40
2018-03-28T15:05:53.447Z,6.07
2018-03-28T15:08:21.472Z,5.75
2018-03-28T15:10:49.468Z,5.65
2018-03-28T15:13:17.510Z,5.78
2018-03-28T15:15:45.484Z,7.35
2018-03-28T15:18:13.531Z,4.87
2018-03-28T15:20:41.524Z,6.70
2018-03-28T15:23:09.529Z,5.03
2018-03-28T15:25:37.732Z,4.62
2018-03-28T15:28:05.748Z,4.80
2018-03-28T15:30:33.748Z,4.40
2018-03-28T15:33:01.733Z,5.05
2018-03-28T15:35:29.736Z,6.00
2018-03-28T15:37:57.767Z,5.22
2018-03-28T15:40:25.764Z,5.53
2018-03-28T15:42:53.760Z,5.22
2018-03-28T15:45:21.768Z,6.15
2018-03-28T15:47:49.744Z,5.45
2018-03-28T15:50:17.720Z,6.32
2018-03-28T15:52:45.704Z,6.43
2018-03-28T15:55:13.744Z,7.03
2018-03-28T15:57:41.756Z,7.47
2018-03-28T16:00:09.770Z,7.87
2018-03-28T16:02:37.740Z,7.97
2018-03-28T16:05:05.712Z,7.20
2018-03-28T16:07:33.700Z,6.72
2018-03-28T16:10:01.707Z,7.70
2018-03-28T16:12:29.719Z,6.70
2018-03-28T16:14:58.719Z,6.80
2018-03-28T16:17:27.730Z,7.70
2018-03-28T16:19:55.740Z,7.50
2018-03-28T16:22:23.759Z,8.32
2018-03-28T16:24:51.799Z,7.78
2018-03-28T17:13:12.699Z,7.25
2018-03-28T17:15:40.664Z,6.95
2018-03-28T17:18:08.644Z,6.85
2018-03-28T17:20:36.656Z,6.70
2018-03-28T17:23:04.668Z,6.62
2018-03-28T17:25:32.761Z,7.07
2018-03-28T17:28:01.647Z,7.87
2018-03-28T17:30:29.644Z,9.30
2018-03-28T17:32:57.596Z,8.85
2018-03-28T17:35:25.619Z,8.27
2018-03-28T17:37:53.636Z,8.80
2018-03-28T17:40:21.634Z,8.18
2018-03-28T17:42:49.650Z,10.68
2018-03-28T17:45:17.621Z,9.75
2018-03-28T17:47:45.617Z,9.85
2018-03-28T17:50:13.616Z,10.93
2018-03-28T17:52:41.576Z,8.98
2018-03-28T17:55:09.568Z,10.02
2018-03-28T17:57:37.549Z,10.60
2018-03-28T18:00:05.548Z,9.07
2018-03-28T18:02:33.556Z,9.57
2018-03-28T18:05:04.600Z,10.88
2018-03-28T18:07:36.366Z,10.27
2018-03-28T18:10:04.705Z,10.60
2018-03-28T18:12:32.666Z,11.57
2018-03-28T18:15:00.664Z,13.00
2018-03-28T18:17:28.652Z,11.20
2018-03-28T18:19:56.640Z,13.87
2018-03-28T18:22:24.630Z,14.00
2018-03-28T18:24:52.621Z,14.10
2018-03-28T18:27:21.624Z,14.87
2018-03-28T18:29:49.588Z,15.07
2018-03-28T18:32:18.718Z,16.07
2018-03-28T18:34:46.716Z,17.13
2018-03-28T18:37:14.758Z,15.10
2018-03-28T18:39:43.550Z,18.15
2018-03-28T18:42:11.788Z,17.97
2018-03-28T18:44:40.800Z,15.37
2018-03-28T18:47:09.892Z,13.03
2018-03-28T18:49:37.918Z,10.70
2018-03-28T18:52:06.705Z,10.88
2018-03-28T18:54:34.719Z,10.80
2018-03-28T18:57:02.748Z,11.13
2018-03-28T18:59:31.773Z,11.40
2018-03-28T19:02:00.777Z,12.70
2018-03-28T19:04:28.780Z,11.30
2018-03-28T19:06:56.756Z,11.77
2018-03-28T19:09:24.749Z,9.30
2018-03-28T19:11:52.724Z,10.43
2018-03-28T19:14:20.719Z,11.90
2018-03-28T19:16:48.722Z,11.55
2018-03-28T19:19:16.716Z,10.93
2018-03-28T19:21:44.711Z,11.15
2018-03-28T19:24:12.781Z,12.00
2018-03-28T19:26:40.877Z,14.77
2018-03-28T19:29:08.860Z,12.65
2018-03-28T19:31:36.844Z,13.10
2018-03-28T19:34:04.909Z,12.25
2018-03-28T19:36:32.954Z,12.07
2018-03-28T19:39:00.941Z,12.18
2018-03-28T19:41:29.094Z,11.90
2018-03-28T19:43:57.142Z,12.30
2018-03-28T19:46:25.137Z,11.15
2018-03-28T19:48:53.136Z,11.85
2018-03-28T19:51:21.426Z,10.85
2018-03-28T19:53:49.453Z,11.82
2018-03-28T19:56:17.515Z,12.45
2018-03-28T19:58:45.686Z,13.75
2018-03-28T20:01:13.695Z,13.25
2018-03-28T20:03:41.683Z,12.82
2018-03-28T20:06:09.675Z,13.73
2018-03-28T20:08:37.727Z,11.20
2018-03-28T20:11:05.743Z,11.68
2018-03-28T20:13:33.772Z,10.98
2018-03-28T20:16:01.865Z,12.77
2018-03-28T20:18:29.847Z,9.57
2018-03-28T20:20:57.872Z,5.28
2018-03-28T20:23:25.848Z,2.22
2018-03-28T20:25:53.810Z,0.95
2018-03-28T20:28:21.811Z,1.65
2018-03-28T20:30:49.804Z,1.77
2018-03-28T20:33:17.800Z,1.15
2018-03-28T20:35:45.808Z,1.05
2018-03-28T20:38:13.772Z,1.40
2018-03-28T20:40:41.787Z,1.20
2018-03-28T20:43:09.785Z,1.12
2018-03-28T20:45:37.762Z,1.20
2018-03-28T20:48:05.776Z,1.62
2018-03-28T20:50:33.778Z,1.25
2018-03-28T20:53:01.825Z,1.27
2018-03-28T20:55:29.863Z,1.33
2018-03-28T20:57:57.839Z,0.95
2018-03-28T21:00:25.809Z,1.70
2018-03-28T21:02:53.795Z,1.50
2018-03-28T21:05:21.779Z,1.40
2018-03-28T21:07:49.770Z,1.60
2018-03-28T21:10:17.893Z,2.28
2018-03-28T21:12:45.847Z,1.90
2018-03-28T21:15:13.845Z,2.10
2018-03-28T21:17:41.800Z,2.00
2018-03-28T21:20:09.800Z,2.45
2018-03-28T21:22:37.803Z,2.50
2018-03-28T21:25:05.776Z,2.75
2018-03-28T21:27:33.775Z,2.50
2018-03-28T21:30:01.762Z,2.15
2018-03-28T21:32:29.776Z,2.00
2018-03-28T21:34:57.782Z,2.22
2018-03-28T21:37:26.816Z,2.50
2018-03-28T21:39:54.809Z,2.20
2018-03-28T21:42:22.793Z,1.62
2018-03-28T21:44:50.788Z,2.25
2018-03-28T21:47:18.788Z,2.08
2018-03-28T21:49:46.798Z,1.98
2018-03-28T21:52:14.759Z,2.10
2018-03-28T21:54:42.760Z,2.78
2018-03-28T21:57:10.767Z,2.85
2018-03-28T21:59:38.764Z,2.60
2018-03-28T22:02:06.744Z,1.98
2018-03-28T22:04:34.716Z,2.55
2018-03-28T22:07:02.737Z,2.75
2018-03-28T22:09:30.737Z,2.85
2018-03-28T22:11:58.676Z,3.25
2018-03-28T22:14:26.703Z,3.00
2018-03-28T22:16:54.671Z,3.10
2018-03-28T22:19:22.635Z,2.80
2018-03-28T22:21:50.648Z,3.25
2018-03-28T22:24:19.684Z,3.30
2018-03-28T22:26:47.706Z,3.40
2018-03-28T22:29:15.725Z,3.35
2018-03-28T22:31:43.740Z,3.80
2018-03-28T22:34:11.737Z,3.85
2018-03-28T22:36:39.692Z,3.35
2018-03-28T22:39:07.666Z,3.92
2018-03-28T22:41:35.652Z,3.75
2018-03-28T22:44:03.624Z,3.15
2018-03-28T22:46:31.576Z,3.78
2018-03-28T22:48:59.587Z,3.70
2018-03-28T22:51:27.588Z,4.40
2018-03-28T22:53:56.596Z,3.47
2018-03-28T22:56:24.632Z,4.35
2018-03-28T22:58:52.640Z,3.28
2018-03-28T23:01:21.624Z,4.20
2018-03-28T23:03:50.664Z,4.43
2018-03-28T23:06:18.644Z,3.85
2018-03-28T23:08:46.592Z,3.97
2018-03-28T23:11:14.595Z,4.68
2018-03-28T23:13:42.584Z,4.62
2018-03-28T23:16:10.537Z,3.75
2018-03-28T23:18:38.536Z,4.37
2018-03-28T23:21:06.508Z,4.20
2018-03-28T23:23:34.498Z,4.60
2018-03-28T23:26:03.480Z,4.45
2018-03-28T23:28:31.489Z,4.35
2018-03-28T23:30:59.444Z,4.40
2018-03-28T23:33:27.396Z,3.25
2018-03-28T23:35:55.338Z,3.58
2018-03-28T23:38:23.347Z,3.65
2018-03-28T23:40:51.340Z,2.90
2018-03-28T23:43:19.316Z,2.80
2018-03-28T23:45:47.304Z,3.05
2018-03-28T23:48:15.308Z,2.97
2018-03-28T23:50:43.320Z,3.42
2018-03-28T23:53:11.294Z,3.42
2018-03-28T23:55:39.250Z,3.58
2018-03-28T23:58:07.269Z,3.05
